createdAt,value
2023-02-16T00:02:32.487Z,17.50
2023-02-16T00:05:25.000Z,16.07
2023-02-16T00:08:11.626Z,18.37
2023-02-16T00:11:11.935Z,18.10
2023-02-16T00:13:59.989Z,17.93
2023-02-16T00:16:46.532Z,16.20
2023-02-16T00:19:37.297Z,16.07
2023-02-16T00:22:24.365Z,17.63
2023-02-16T00:25:11.312Z,18.63
2023-02-16T00:27:57.739Z,16.43
2023-02-16T00:30:45.617Z,16.73
2023-02-16T00:33:32.490Z,15.93
2023-02-16T00:36:18.850Z,15.77
2023-02-16T00:39:05.274Z,17.77
2023-02-16T00:41:52.276Z,16.33
2023-02-16T00:44:42.424Z,16.40
2023-02-16T00:47:33.585Z,18.83
2023-02-16T00:50:23.950Z,16.30
2023-02-16T00:53:11.660Z,12.97
2023-02-16T00:55:58.404Z,21.07
2023-02-16T00:58:44.985Z,17.57
2023-02-16T01:01:33.674Z,16.93
2023-02-16T01:04:24.020Z,19.50
2023-02-16T01:07:30.511Z,16.63
2023-02-16T01:10:36.203Z,17.73
2023-02-16T01:13:23.425Z,19.80
2023-02-16T01:16:15.753Z,18.27
2023-02-16T01:19:02.723Z,17.77
2023-02-16T01:21:50.338Z,18.33
2023-02-16T01:24:37.001Z,17.83
2023-02-16T01:27:23.318Z,17.80
2023-02-16T01:30:15.398Z,19.43
2023-02-16T01:33:01.995Z,20.83
2023-02-16T01:35:48.767Z,16.53
2023-02-16T01:38:36.928Z,18.80
2023-02-16T01:41:34.559Z,19.50
2023-02-16T01:44:25.161Z,19.47
2023-02-16T01:47:24.626Z,20.67
2023-02-16T01:50:18.992Z,18.30
2023-02-16T01:53:12.830Z,20.60
2023-02-16T01:56:05.842Z,21.50
2023-02-16T01:58:57.649Z,18.17
2023-02-16T02:01:49.875Z,16.67
2023-02-16T02:04:58.800Z,16.60
2023-02-16T02:07:52.445Z,19.20
2023-02-16T02:10:46.328Z,18.70
2023-02-16T02:13:41.372Z,20.03
2023-02-16T02:16:29.432Z,21.33
2023-02-16T02:19:16.248Z,19.40
2023-02-16T02:22:44.309Z,17.90
2023-02-16T02:25:55.402Z,18.83
2023-02-16T02:28:54.288Z,19.40
2023-02-16T02:31:51.082Z,22.43
2023-02-16T02:34:54.159Z,20.43
2023-02-16T02:37:48.949Z,21.60
2023-02-16T02:40:45.943Z,18.13
2023-02-16T02:43:39.654Z,21.23
2023-02-16T02:46:31.797Z,22.50
2023-02-16T02:49:18.392Z,19.80
2023-02-16T02:52:05.301Z,20.67
2023-02-16T02:55:09.687Z,18.50
2023-02-16T02:58:14.118Z,20.13
2023-02-16T03:01:01.373Z,20.43
2023-02-16T03:03:51.994Z,21.03
2023-02-16T03:06:41.542Z,20.60
2023-02-16T03:09:28.900Z,21.97
2023-02-16T03:12:33.611Z,22.23
2023-02-16T03:15:21.327Z,19.33
2023-02-16T03:18:28.046Z,19.63
2023-02-16T03:21:34.407Z,22.77
2023-02-16T03:24:43.146Z,20.73
2023-02-16T03:27:51.090Z,23.60
2023-02-16T03:30:38.388Z,22.03
2023-02-16T03:33:26.253Z,21.13
2023-02-16T03:36:12.891Z,23.60
2023-02-16T03:39:01.555Z,22.77
2023-02-16T03:41:51.184Z,25.60
2023-02-16T03:44:37.989Z,22.53
2023-02-16T03:47:24.360Z,26.87
2023-02-16T03:50:11.189Z,26.10
2023-02-16T03:53:06.811Z,25.43
2023-02-16T03:55:55.206Z,24.17
2023-02-16T03:58:41.938Z,22.63
2023-02-16T04:01:28.333Z,24.23
2023-02-16T04:04:15.370Z,23.23
2023-02-16T04:07:02.036Z,19.77
2023-02-16T04:09:48.399Z,22.43
2023-02-16T04:12:39.114Z,23.30
2023-02-16T04:15:27.332Z,24.13
2023-02-16T04:18:13.723Z,24.67
2023-02-16T04:21:00.012Z,21.40
2023-02-16T04:23:46.514Z,22.37
2023-02-16T04:26:33.436Z,21.67
2023-02-16T04:29:21.130Z,25.23
2023-02-16T04:32:07.892Z,23.70
2023-02-16T04:34:54.383Z,25.70
2023-02-16T04:37:40.652Z,22.97
2023-02-16T04:40:27.046Z,24.33
2023-02-16T04:43:13.544Z,29.40
2023-02-16T04:46:01.419Z,23.07
2023-02-16T04:48:48.405Z,22.43
2023-02-16T04:51:34.996Z,27.47
2023-02-16T04:54:21.389Z,23.93
2023-02-16T04:57:07.897Z,25.50
2023-02-16T04:59:54.314Z,29.97
2023-02-16T05:02:42.098Z,27.47
2023-02-16T05:05:28.771Z,27.77
2023-02-16T05:08:15.150Z,29.30
2023-02-16T05:11:18.999Z,25.90
2023-02-16T05:14:22.872Z,23.10
2023-02-16T05:17:10.193Z,26.53
2023-02-16T05:19:59.936Z,25.00
2023-02-16T05:22:46.610Z,27.47
2023-02-16T05:25:32.833Z,27.13
2023-02-16T05:28:19.254Z,27.43
2023-02-16T05:31:06.857Z,28.47
2023-02-16T05:33:54.017Z,24.20
2023-02-16T05:36:42.197Z,26.93
2023-02-16T05:39:28.592Z,28.27
2023-02-16T05:42:15.332Z,26.23
2023-02-16T05:45:02.411Z,25.00
2023-02-16T05:47:48.925Z,25.80
2023-02-16T05:50:35.196Z,23.67
2023-02-16T05:53:23.082Z,28.93
2023-02-16T05:56:10.619Z,30.10
2023-02-16T05:58:57.211Z,27.93
2023-02-16T06:01:44.625Z,28.27
2023-02-16T06:04:32.619Z,32.10
2023-02-16T06:07:19.618Z,29.33
2023-02-16T06:10:08.426Z,28.03
2023-02-16T06:12:54.993Z,29.70
2023-02-16T06:15:41.514Z,32.73
2023-02-16T06:18:28.390Z,31.43
2023-02-16T06:21:14.789Z,26.03
2023-02-16T06:24:01.381Z,26.97
2023-02-16T06:26:49.258Z,26.30
2023-02-16T06:29:35.912Z,27.57
2023-02-16T06:32:22.398Z,32.70
2023-02-16T06:35:10.023Z,29.53
2023-02-16T06:37:56.778Z,29.87
2023-02-16T06:40:43.362Z,27.03
2023-02-16T06:43:31.055Z,28.50
2023-02-16T06:46:17.846Z,24.87
2023-02-16T06:49:05.437Z,24.97
2023-02-16T06:51:52.066Z,24.53
2023-02-16T06:54:38.322Z,26.33
2023-02-16T06:57:24.674Z,25.00
2023-02-16T07:00:13.653Z,25.43
2023-02-16T07:03:00.309Z,24.47
2023-02-16T07:05:46.712Z,24.20
2023-02-16T07:08:34.925Z,28.27
2023-02-16T07:11:22.909Z,27.37
2023-02-16T07:14:09.523Z,28.20
2023-02-16T07:16:59.204Z,29.67
2023-02-16T07:19:45.498Z,29.27
2023-02-16T07:22:31.873Z,24.27
2023-02-16T07:25:18.384Z,31.63
2023-02-16T07:28:05.182Z,24.03
2023-02-16T07:30:51.948Z,25.50
2023-02-16T07:33:40.369Z,28.30
2023-02-16T07:36:27.135Z,24.00
2023-02-16T07:39:13.528Z,24.23
2023-02-16T07:41:59.903Z,25.40
2023-02-16T07:44:46.476Z,24.07
2023-02-16T07:47:32.821Z,25.40
2023-02-16T07:50:20.778Z,24.70
2023-02-16T07:53:07.603Z,25.27
2023-02-16T07:55:54.430Z,22.47
2023-02-16T07:58:40.881Z,24.87
2023-02-16T08:01:27.968Z,30.23
2023-02-16T08:04:14.478Z,26.93
2023-02-16T08:07:02.198Z,24.90
2023-02-16T08:09:48.844Z,24.53
2023-02-16T08:12:35.730Z,22.13
2023-02-16T08:15:22.468Z,24.43
2023-02-16T08:18:09.089Z,25.00
2023-02-16T08:21:04.092Z,20.70
2023-02-16T08:23:57.419Z,26.90
2023-02-16T08:26:44.807Z,23.70
2023-02-16T08:29:31.667Z,21.90
2023-02-16T08:32:18.082Z,25.23
2023-02-16T08:35:04.947Z,24.33
2023-02-16T08:37:51.728Z,23.57
2023-02-16T08:40:39.454Z,26.87
2023-02-16T08:43:25.890Z,23.27
2023-02-16T08:46:12.653Z,24.93
2023-02-16T08:49:00.396Z,25.33
2023-02-16T08:51:50.668Z,22.67
2023-02-16T08:54:38.771Z,18.23
2023-02-16T08:57:26.901Z,28.17
2023-02-16T09:00:35.571Z,25.17
2023-02-16T09:03:22.154Z,25.07
2023-02-16T09:06:10.202Z,23.37
2023-02-16T09:08:58.241Z,25.97
2023-02-16T09:11:44.890Z,24.93
2023-02-16T09:14:33.086Z,22.97
2023-02-16T09:17:20.640Z,25.13
2023-02-16T09:20:08.483Z,23.57
2023-02-16T09:22:54.988Z,28.07
2023-02-16T09:25:42.515Z,25.53
2023-02-16T09:28:30.776Z,20.73
2023-02-16T09:31:25.575Z,23.23
2023-02-16T09:34:17.277Z,24.87
2023-02-16T09:37:03.766Z,22.57
2023-02-16T09:39:50.022Z,24.07
2023-02-16T09:42:49.297Z,23.80
2023-02-16T09:45:43.506Z,23.30
2023-02-16T09:48:36.982Z,20.83
2023-02-16T09:51:34.295Z,25.27
2023-02-16T09:54:31.761Z,21.37
2023-02-16T09:57:28.694Z,22.97
2023-02-16T10:00:25.722Z,24.93
2023-02-16T10:03:26.998Z,22.63
2023-02-16T10:06:29.269Z,24.23
2023-02-16T10:09:19.321Z,24.20
2023-02-16T10:12:10.516Z,23.77
2023-02-16T10:14:59.375Z,22.40
2023-02-16T10:17:50.290Z,25.33
2023-02-16T10:20:40.442Z,22.63
2023-02-16T10:23:43.390Z,26.57
2023-02-16T10:26:35.239Z,25.70
2023-02-16T10:29:24.023Z,48.87
2023-02-16T10:32:19.129Z,26.53
2023-02-16T10:35:13.679Z,20.50
2023-02-16T10:38:08.221Z,22.97
2023-02-16T10:41:02.568Z,25.90
2023-02-16T10:43:54.102Z,22.33
2023-02-16T10:46:45.062Z,22.47
2023-02-16T10:49:33.555Z,21.50
2023-02-16T10:52:21.127Z,24.93
2023-02-16T10:55:08.064Z,26.70
2023-02-16T10:57:58.282Z,24.63
2023-02-16T11:00:53.604Z,22.20
2023-02-16T11:03:46.647Z,21.73
2023-02-16T11:06:36.443Z,24.90
2023-02-16T11:09:29.504Z,24.67
2023-02-16T11:12:28.433Z,22.50
2023-02-16T11:15:25.050Z,22.53
2023-02-16T11:18:29.038Z,25.33
2023-02-16T11:21:15.501Z,28.23
2023-02-16T11:24:02.639Z,22.27
2023-02-16T11:27:02.051Z,23.50
2023-02-16T11:29:49.089Z,21.33
2023-02-16T11:32:37.039Z,24.10
2023-02-16T11:35:23.834Z,26.57
2023-02-16T11:38:29.382Z,29.40
2023-02-16T11:41:22.900Z,21.60
2023-02-16T11:44:27.151Z,21.87
2023-02-16T11:47:24.998Z,25.47
2023-02-16T11:50:23.139Z,22.70
2023-02-16T11:53:23.933Z,24.07
2023-02-16T11:56:14.385Z,22.53
2023-02-16T11:59:07.123Z,23.67
2023-02-16T12:02:13.147Z,24.13
2023-02-16T12:05:28.264Z,25.53
2023-02-16T12:08:30.231Z,23.90
2023-02-16T12:11:28.173Z,23.10
2023-02-16T12:14:30.960Z,22.37
2023-02-16T12:17:31.774Z,20.13
2023-02-16T12:20:35.288Z,24.27
2023-02-16T12:23:34.733Z,23.13
2023-02-16T12:26:35.111Z,23.20
2023-02-16T12:29:38.004Z,23.73
2023-02-16T12:32:46.965Z,23.80
2023-02-16T12:35:51.419Z,22.43
2023-02-16T12:38:52.447Z,24.00
2023-02-16T12:41:49.575Z,23.77
2023-02-16T12:44:42.626Z,24.23
2023-02-16T12:47:33.573Z,23.53
2023-02-16T12:50:22.848Z,22.03
2023-02-16T12:53:22.051Z,23.33
2023-02-16T12:56:12.996Z,26.13
2023-02-16T12:59:15.357Z,24.77
2023-02-16T13:02:05.389Z,25.37
2023-02-16T13:04:57.676Z,22.93
2023-02-16T13:07:47.090Z,24.63
2023-02-16T13:10:41.032Z,25.57
2023-02-16T13:13:31.468Z,28.20
2023-02-16T13:16:29.999Z,25.17
2023-02-16T13:19:17.567Z,25.97
2023-02-16T13:22:43.783Z,26.10
2023-02-16T13:25:54.118Z,24.50
2023-02-16T13:29:02.093Z,25.10
2023-02-16T13:32:01.886Z,22.60
2023-02-16T13:34:59.236Z,24.07
2023-02-16T13:38:00.098Z,26.20
2023-02-16T13:41:20.721Z,23.17
2023-02-16T13:44:13.646Z,23.83
2023-02-16T13:47:00.638Z,27.97
2023-02-16T13:49:50.357Z,24.27
2023-02-16T13:52:41.176Z,25.17
2023-02-16T13:55:31.642Z,22.87
2023-02-16T13:58:37.495Z,23.67
2023-02-16T14:01:39.838Z,24.00
2023-02-16T14:04:59.840Z,23.63
2023-02-16T14:07:46.919Z,23.10
2023-02-16T14:11:04.988Z,22.83
2023-02-16T14:13:53.851Z,22.43
2023-02-16T14:16:40.737Z,24.30
2023-02-16T14:19:28.110Z,23.43
2023-02-16T14:22:22.977Z,23.50
2023-02-16T14:25:48.120Z,24.83
2023-02-16T14:29:12.559Z,28.60
2023-02-16T14:32:06.308Z,22.83
2023-02-16T14:34:57.861Z,23.37
2023-02-16T14:37:55.359Z,29.83
2023-02-16T14:40:46.585Z,23.03
2023-02-16T14:43:35.717Z,24.47
2023-02-16T14:46:38.818Z,27.20
2023-02-16T14:49:58.075Z,23.93
2023-02-16T14:53:07.740Z,21.87
2023-02-16T14:56:33.217Z,23.10
2023-02-16T14:59:29.658Z,23.20
2023-02-16T15:02:40.102Z,27.53
2023-02-16T15:05:30.044Z,24.30
2023-02-16T15:08:18.956Z,25.50
2023-02-16T15:11:17.122Z,24.03
2023-02-16T15:14:07.961Z,23.03
2023-02-16T15:16:54.614Z,22.20
2023-02-16T15:19:43.992Z,26.53
2023-02-16T15:22:31.818Z,23.97
2023-02-16T15:25:25.067Z,24.53
2023-02-16T15:28:21.960Z,23.23
2023-02-16T15:31:13.363Z,24.53
2023-02-16T15:34:05.560Z,23.13
2023-02-16T15:36:53.654Z,27.33
2023-02-16T15:39:51.915Z,38.10
2023-02-16T15:42:46.921Z,28.60
2023-02-16T15:45:35.485Z,28.03
2023-02-16T15:48:32.559Z,22.17
2023-02-16T15:51:25.206Z,27.77
2023-02-16T15:54:23.509Z,24.10
2023-02-16T15:57:16.756Z,22.33
2023-02-16T16:00:07.323Z,23.30
2023-02-16T16:02:56.621Z,23.03
2023-02-16T16:06:01.282Z,24.60
2023-02-16T16:08:47.897Z,22.33
2023-02-16T16:11:37.153Z,24.60
2023-02-16T16:14:25.035Z,28.17
2023-02-16T16:17:15.792Z,22.57
2023-02-16T16:20:27.332Z,23.43
2023-02-16T16:23:28.289Z,24.67
2023-02-16T16:26:19.611Z,32.33
2023-02-16T16:29:31.868Z,25.30
2023-02-16T16:32:21.278Z,25.77
2023-02-16T16:35:21.518Z,27.07
2023-02-16T16:38:21.533Z,26.03
2023-02-16T16:41:07.989Z,24.80
2023-02-16T16:43:56.231Z,26.67
2023-02-16T16:46:44.374Z,24.57
2023-02-16T16:49:31.166Z,25.10
2023-02-16T16:52:37.589Z,23.23
2023-02-16T16:55:27.498Z,29.33
2023-02-16T16:58:13.858Z,27.40
2023-02-16T17:01:00.290Z,28.47
2023-02-16T17:03:48.525Z,25.40
2023-02-16T17:06:35.361Z,25.10
2023-02-16T17:09:21.866Z,27.03
2023-02-16T17:12:10.942Z,28.20
2023-02-16T17:14:57.846Z,26.67
2023-02-16T17:17:44.534Z,25.80
2023-02-16T17:20:32.442Z,26.17
2023-02-16T17:23:21.223Z,26.13
2023-02-16T17:26:08.185Z,29.63
2023-02-16T17:28:54.690Z,26.10
2023-02-16T17:31:41.315Z,25.73
2023-02-16T17:34:30.465Z,31.50
2023-02-16T17:37:19.650Z,29.07
2023-02-16T17:40:13.947Z,30.07
2023-02-16T17:43:00.599Z,27.53
2023-02-16T17:45:48.912Z,28.13
2023-02-16T17:48:35.544Z,28.03
2023-02-16T17:51:24.018Z,27.77
2023-02-16T17:54:12.216Z,27.13
2023-02-16T17:56:58.940Z,25.40
2023-02-16T17:59:45.770Z,26.37
2023-02-16T18:02:32.440Z,26.30
2023-02-16T18:05:18.979Z,28.87
2023-02-16T18:08:06.696Z,28.57
2023-02-16T18:11:01.933Z,28.20
2023-02-16T18:13:48.632Z,28.87
2023-02-16T18:16:35.106Z,27.50
2023-02-16T18:19:21.726Z,29.47
2023-02-16T18:22:08.053Z,27.87
2023-02-16T18:24:54.477Z,29.73
2023-02-16T18:27:42.699Z,25.07
2023-02-16T18:30:29.600Z,28.90
2023-02-16T18:33:16.335Z,32.87
2023-02-16T18:36:03.764Z,32.83
2023-02-16T18:38:51.495Z,28.10
2023-02-16T18:41:38.318Z,30.83
2023-02-16T18:44:26.191Z,27.93
2023-02-16T18:47:12.854Z,28.00
2023-02-16T18:49:59.308Z,28.13
2023-02-16T18:52:46.170Z,31.03
2023-02-16T18:55:33.693Z,29.70
2023-02-16T18:58:20.303Z,27.60
2023-02-16T19:01:15.226Z,29.23
2023-02-16T19:04:02.986Z,25.47
2023-02-16T19:06:49.693Z,26.63
2023-02-16T19:09:36.199Z,28.20
2023-02-16T19:12:22.564Z,26.27
2023-02-16T19:15:10.240Z,28.77
2023-02-16T19:17:58.421Z,27.83
2023-02-16T19:20:45.287Z,26.93
2023-02-16T19:23:31.684Z,37.27
2023-02-16T19:26:18.945Z,33.90
2023-02-16T19:29:05.981Z,31.03
2023-02-16T19:31:52.309Z,28.00
2023-02-16T19:34:40.458Z,24.87
2023-02-16T19:37:27.240Z,30.33
2023-02-16T19:40:14.427Z,24.80
2023-02-16T19:43:01.255Z,28.93
2023-02-16T19:45:47.762Z,34.53
2023-02-16T19:48:34.460Z,26.00
2023-02-16T19:51:22.598Z,28.53
2023-02-16T19:54:09.405Z,31.00
2023-02-16T19:56:55.829Z,23.57
2023-02-16T19:59:42.398Z,25.70
2023-02-16T20:02:28.940Z,26.83
2023-02-16T20:05:15.782Z,30.17
2023-02-16T20:08:03.561Z,28.43
2023-02-16T20:10:50.238Z,25.37
2023-02-16T20:13:37.463Z,25.43
2023-02-16T20:16:24.809Z,24.53
2023-02-16T20:19:11.800Z,22.30
2023-02-16T20:21:58.467Z,22.87
2023-02-16T20:24:46.254Z,25.43
2023-02-16T20:27:33.079Z,24.63
2023-02-16T20:30:25.254Z,21.13
2023-02-16T20:33:11.873Z,23.67
2023-02-16T20:35:58.335Z,25.17
2023-02-16T20:38:45.411Z,22.13
2023-02-16T20:41:33.276Z,22.80
2023-02-16T20:44:22.541Z,24.80
2023-02-16T20:47:10.234Z,21.30
2023-02-16T20:49:56.877Z,23.30
2023-02-16T20:52:43.270Z,22.03
2023-02-16T20:55:29.547Z,21.67
2023-02-16T20:58:18.498Z,25.83
2023-02-16T21:01:11.327Z,22.33
2023-02-16T21:03:59.438Z,21.50
2023-02-16T21:06:46.339Z,24.17
2023-02-16T21:09:33.408Z,22.87
2023-02-16T21:12:19.878Z,21.43
2023-02-16T21:15:10.007Z,24.63
2023-02-16T21:17:56.642Z,19.77
2023-02-16T21:20:43.131Z,26.87
2023-02-16T21:23:29.753Z,21.83
2023-02-16T21:26:17.202Z,22.17
2023-02-16T21:29:03.794Z,20.03
2023-02-16T21:31:51.594Z,19.30
2023-02-16T21:34:38.204Z,26.13
2023-02-16T21:37:24.653Z,24.00
2023-02-16T21:40:31.087Z,21.27
2023-02-16T21:43:18.303Z,19.50
2023-02-16T21:46:06.005Z,22.87
2023-02-16T21:48:53.258Z,18.43
2023-02-16T21:51:41.492Z,21.17
2023-02-16T21:54:41.868Z,21.07
2023-02-16T21:57:28.539Z,22.33
2023-02-16T22:00:15.966Z,20.47
2023-02-16T22:03:03.060Z,19.50
2023-02-16T22:05:51.150Z,16.40
2023-02-16T22:08:38.485Z,20.13
2023-02-16T22:11:25.210Z,18.97
2023-02-16T22:14:12.105Z,19.60
2023-02-16T22:16:58.703Z,20.40
2023-02-16T22:19:45.086Z,20.57
2023-02-16T22:22:33.013Z,21.60
2023-02-16T22:25:19.927Z,20.63
2023-02-16T22:28:07.007Z,18.43
2023-02-16T22:30:53.862Z,17.27
2023-02-16T22:33:40.488Z,18.90
2023-02-16T22:36:27.450Z,19.03
2023-02-16T22:39:16.840Z,19.13
2023-02-16T22:42:03.655Z,15.43
2023-02-16T22:44:50.003Z,19.13
2023-02-16T22:47:36.438Z,18.30
2023-02-16T22:50:22.901Z,16.80
2023-02-16T22:53:09.359Z,17.20
2023-02-16T22:55:57.064Z,18.53
2023-02-16T22:58:44.263Z,16.30
2023-02-16T23:01:31.984Z,18.23
2023-02-16T23:04:18.720Z,19.00
2023-02-16T23:07:04.986Z,18.00
2023-02-16T23:09:51.290Z,15.47
2023-02-16T23:12:39.009Z,17.57
2023-02-16T23:15:25.840Z,17.77
2023-02-16T23:18:12.355Z,18.73
2023-02-16T23:21:04.678Z,18.20
2023-02-16T23:23:52.020Z,20.00
2023-02-16T23:26:38.570Z,21.57
2023-02-16T23:29:26.511Z,19.20
2023-02-16T23:32:13.181Z,20.60
2023-02-16T23:34:59.951Z,21.97
2023-02-16T23:37:47.694Z,20.17
2023-02-16T23:40:34.481Z,19.97
2023-02-16T23:43:21.215Z,19.93
2023-02-16T23:46:10.074Z,19.33
2023-02-16T23:48:56.969Z,20.83
2023-02-16T23:51:43.442Z,19.93
2023-02-16T23:54:29.852Z,18.63
2023-02-16T23:57:16.285Z,18.53
